sensor_id;sensor_type;location;lat;lon;timestamp;P1;durP1;ratioP1;P2;durP2;ratioP2
28910;SDS011;16028;42.642;23.310;2023-08-06T00:01:13;8.10;;;5.35;;
28910;SDS011;16028;42.642;23.310;2023-08-06T00:03:40;9.20;;;5.85;;
28910;SDS011;16028;42.642;23.310;2023-08-06T00:06:06;7.85;;;5.97;;
28910;SDS011;16028;42.642;23.310;2023-08-06T00:08:33;11.32;;;6.53;;
28910;SDS011;16028;42.642;23.310;2023-08-06T00:11:01;11.05;;;6.60;;
28910;SDS011;16028;42.642;23.310;2023-08-06T00:13:28;10.27;;;6.75;;
28910;SDS011;16028;42.642;23.310;2023-08-06T00:15:55;10.95;;;7.00;;
28910;SDS011;16028;42.642;23.310;2023-08-06T00:18:22;10.88;;;6.75;;
28910;SDS011;16028;42.642;23.310;2023-08-06T00:20:49;12.18;;;7.25;;
28910;SDS011;16028;42.642;23.310;2023-08-06T00:23:15;10.88;;;7.20;;
28910;SDS011;16028;42.642;23.310;2023-08-06T00:25:43;10.68;;;7.03;;
28910;SDS011;16028;42.642;23.310;2023-08-06T00:28:11;9.18;;;7.00;;
28910;SDS011;16028;42.642;23.310;2023-08-06T00:30:38;9.23;;;7.00;;
28910;SDS011;16028;42.642;23.310;2023-08-06T00:33:04;15.60;;;6.95;;
28910;SDS011;16028;42.642;23.310;2023-08-06T00:35:31;10.18;;;6.47;;
28910;SDS011;16028;42.642;23.310;2023-08-06T00:37:58;10.73;;;5.63;;
28910;SDS011;16028;42.642;23.310;2023-08-06T00:40:25;8.48;;;6.32;;
28910;SDS011;16028;42.642;23.310;2023-08-06T00:42:53;10.40;;;6.50;;
28910;SDS011;16028;42.642;23.310;2023-08-06T00:45:21;6.47;;;4.70;;
28910;SDS011;16028;42.642;23.310;2023-08-06T00:47:48;11.00;;;5.97;;
28910;SDS011;16028;42.642;23.310;2023-08-06T00:50:15;8.93;;;6.63;;
28910;SDS011;16028;42.642;23.310;2023-08-06T00:52:42;10.80;;;6.55;;
28910;SDS011;16028;42.642;23.310;2023-08-06T00:55:09;8.70;;;6.38;;
28910;SDS011;16028;42.642;23.310;2023-08-06T00:57:36;8.70;;;6.25;;
28910;SDS011;16028;42.642;23.310;2023-08-06T01:00:03;9.63;;;6.28;;
28910;SDS011;16028;42.642;23.310;2023-08-06T01:02:33;9.63;;;6.75;;
28910;SDS011;16028;42.642;23.310;2023-08-06T01:04:59;13.48;;;7.85;;
28910;SDS011;16028;42.642;23.310;2023-08-06T01:07:35;11.07;;;8.07;;
28910;SDS011;16028;42.642;23.310;2023-08-06T01:10:19;19.30;;;11.40;;
28910;SDS011;16028;42.642;23.310;2023-08-06T01:12:57;18.15;;;12.20;;
28910;SDS011;16028;42.642;23.310;2023-08-06T01:15:36;18.30;;;12.65;;
28910;SDS011;16028;42.642;23.310;2023-08-06T01:18:09;16.88;;;10.98;;
28910;SDS011;16028;42.642;23.310;2023-08-06T01:20:38;23.05;;;12.45;;
28910;SDS011;16028;42.642;23.310;2023-08-06T01:23:05;14.85;;;10.40;;
28910;SDS011;16028;42.642;23.310;2023-08-06T01:25:33;21.52;;;12.20;;
28910;SDS011;16028;42.642;23.310;2023-08-06T01:28:04;15.68;;;11.23;;
28910;SDS011;16028;42.642;23.310;2023-08-06T01:30:35;12.45;;;7.95;;
28910;SDS011;16028;42.642;23.310;2023-08-06T01:33:06;10.18;;;6.53;;
28910;SDS011;16028;42.642;23.310;2023-08-06T01:35:42;8.90;;;7.10;;
28910;SDS011;16028;42.642;23.310;2023-08-06T01:38:09;11.57;;;8.80;;
28910;SDS011;16028;42.642;23.310;2023-08-06T01:40:36;15.10;;;9.57;;
28910;SDS011;16028;42.642;23.310;2023-08-06T01:43:02;20.00;;;10.82;;
28910;SDS011;16028;42.642;23.310;2023-08-06T01:45:29;14.20;;;10.43;;
28910;SDS011;16028;42.642;23.310;2023-08-06T01:47:56;12.70;;;8.70;;
28910;SDS011;16028;42.642;23.310;2023-08-06T01:50:23;11.82;;;8.07;;
28910;SDS011;16028;42.642;23.310;2023-08-06T01:52:51;10.23;;;8.25;;
28910;SDS011;16028;42.642;23.310;2023-08-06T01:55:18;8.23;;;6.95;;
28910;SDS011;16028;42.642;23.310;2023-08-06T01:57:45;8.88;;;5.75;;
28910;SDS011;16028;42.642;23.310;2023-08-06T02:00:12;10.00;;;6.47;;
28910;SDS011;16028;42.642;23.310;2023-08-06T02:02:39;7.70;;;6.15;;
28910;SDS011;16028;42.642;23.310;2023-08-06T02:05:06;8.40;;;5.85;;
28910;SDS011;16028;42.642;23.310;2023-08-06T02:07:33;8.85;;;6.57;;
28910;SDS011;16028;42.642;23.310;2023-08-06T02:10:02;9.18;;;5.68;;
28910;SDS011;16028;42.642;23.310;2023-08-06T02:12:29;6.60;;;5.80;;
28910;SDS011;16028;42.642;23.310;2023-08-06T02:14:55;6.45;;;5.22;;
28910;SDS011;16028;42.642;23.310;2023-08-06T02:17:22;6.70;;;5.10;;
28910;SDS011;16028;42.642;23.310;2023-08-06T02:19:49;8.23;;;4.95;;
28910;SDS011;16028;42.642;23.310;2023-08-06T02:22:16;6.10;;;4.90;;
28910;SDS011;16028;42.642;23.310;2023-08-06T02:24:43;6.32;;;4.82;;
28910;SDS011;16028;42.642;23.310;2023-08-06T02:27:11;23.50;;;6.78;;
28910;SDS011;16028;42.642;23.310;2023-08-06T02:29:39;12.77;;;5.60;;
28910;SDS011;16028;42.642;23.310;2023-08-06T02:32:07;15.45;;;6.18;;
28910;SDS011;16028;42.642;23.310;2023-08-06T02:34:34;8.82;;;6.47;;
28910;SDS011;16028;42.642;23.310;2023-08-06T02:37:01;8.77;;;5.78;;
28910;SDS011;16028;42.642;23.310;2023-08-06T02:39:27;7.10;;;5.97;;
28910;SDS011;16028;42.642;23.310;2023-08-06T02:41:54;10.52;;;6.22;;
28910;SDS011;16028;42.642;23.310;2023-08-06T02:44:22;9.75;;;6.60;;
28910;SDS011;16028;42.642;23.310;2023-08-06T02:46:49;11.98;;;7.45;;
28910;SDS011;16028;42.642;23.310;2023-08-06T02:49:16;13.38;;;7.43;;
28910;SDS011;16028;42.642;23.310;2023-08-06T02:51:44;11.32;;;7.13;;
28910;SDS011;16028;42.642;23.310;2023-08-06T02:54:11;13.52;;;8.27;;
28910;SDS011;16028;42.642;23.310;2023-08-06T02:56:38;12.75;;;7.93;;
28910;SDS011;16028;42.642;23.310;2023-08-06T02:59:07;12.80;;;8.23;;
28910;SDS011;16028;42.642;23.310;2023-08-06T03:01:35;10.18;;;7.65;;
28910;SDS011;16028;42.642;23.310;2023-08-06T03:04:02;13.48;;;8.30;;
28910;SDS011;16028;42.642;23.310;2023-08-06T03:06:30;16.67;;;7.75;;
28910;SDS011;16028;42.642;23.310;2023-08-06T03:08:57;13.82;;;8.23;;
28910;SDS011;16028;42.642;23.310;2023-08-06T03:11:23;10.48;;;7.78;;
28910;SDS011;16028;42.642;23.310;2023-08-06T03:13:50;12.38;;;7.45;;
28910;SDS011;16028;42.642;23.310;2023-08-06T03:16:17;9.32;;;6.60;;
28910;SDS011;16028;42.642;23.310;2023-08-06T03:18:45;6.97;;;6.28;;
28910;SDS011;16028;42.642;23.310;2023-08-06T03:21:12;7.45;;;5.53;;
28910;SDS011;16028;42.642;23.310;2023-08-06T03:23:39;9.27;;;5.90;;
28910;SDS011;16028;42.642;23.310;2023-08-06T03:26:06;7.50;;;5.65;;
28910;SDS011;16028;42.642;23.310;2023-08-06T03:28:33;7.93;;;6.10;;
28910;SDS011;16028;42.642;23.310;2023-08-06T03:31:00;8.13;;;6.60;;
28910;SDS011;16028;42.642;23.310;2023-08-06T03:33:27;15.43;;;6.78;;
28910;SDS011;16028;42.642;23.310;2023-08-06T03:35:55;12.63;;;6.75;;
28910;SDS011;16028;42.642;23.310;2023-08-06T03:38:22;11.30;;;6.25;;
28910;SDS011;16028;42.642;23.310;2023-08-06T03:40:49;9.32;;;7.00;;
28910;SDS011;16028;42.642;23.310;2023-08-06T03:43:16;10.65;;;7.50;;
28910;SDS011;16028;42.642;23.310;2023-08-06T03:45:43;8.73;;;7.78;;
28910;SDS011;16028;42.642;23.310;2023-08-06T03:48:10;10.88;;;8.52;;
28910;SDS011;16028;42.642;23.310;2023-08-06T03:50:37;9.73;;;7.22;;
28910;SDS011;16028;42.642;23.310;2023-08-06T03:53:06;9.52;;;7.60;;
28910;SDS011;16028;42.642;23.310;2023-08-06T03:55:32;9.52;;;6.88;;
28910;SDS011;16028;42.642;23.310;2023-08-06T03:57:59;10.95;;;7.72;;
28910;SDS011;16028;42.642;23.310;2023-08-06T04:00:26;11.43;;;8.00;;
28910;SDS011;16028;42.642;23.310;2023-08-06T04:02:53;10.15;;;7.32;;
28910;SDS011;16028;42.642;23.310;2023-08-06T04:05:19;10.63;;;7.78;;
28910;SDS011;16028;42.642;23.310;2023-08-06T04:07:46;10.38;;;7.10;;
28910;SDS011;16028;42.642;23.310;2023-08-06T04:10:14;9.10;;;7.15;;
28910;SDS011;16028;42.642;23.310;2023-08-06T04:12:41;14.68;;;7.47;;
28910;SDS011;16028;42.642;23.310;2023-08-06T04:15:08;14.05;;;9.02;;
28910;SDS011;16028;42.642;23.310;2023-08-06T04:17:35;10.93;;;7.63;;
28910;SDS011;16028;42.642;23.310;2023-08-06T04:20:02;9.27;;;8.00;;
28910;SDS011;16028;42.642;23.310;2023-08-06T04:22:32;10.13;;;8.00;;
28910;SDS011;16028;42.642;23.310;2023-08-06T04:24:59;10.68;;;8.25;;
28910;SDS011;16028;42.642;23.310;2023-08-06T04:27:27;15.48;;;7.60;;
28910;SDS011;16028;42.642;23.310;2023-08-06T04:29:54;9.50;;;7.82;;
28910;SDS011;16028;42.642;23.310;2023-08-06T04:32:21;9.30;;;6.93;;
28910;SDS011;16028;42.642;23.310;2023-08-06T04:34:48;8.02;;;6.80;;
28910;SDS011;16028;42.642;23.310;2023-08-06T04:37:15;9.48;;;7.60;;
28910;SDS011;16028;42.642;23.310;2023-08-06T04:39:41;8.45;;;6.95;;
28910;SDS011;16028;42.642;23.310;2023-08-06T04:42:08;10.20;;;6.65;;
28910;SDS011;16028;42.642;23.310;2023-08-06T04:44:36;8.40;;;7.03;;
28910;SDS011;16028;42.642;23.310;2023-08-06T04:47:03;12.77;;;7.55;;
28910;SDS011;16028;42.642;23.310;2023-08-06T04:49:30;10.18;;;7.47;;
28910;SDS011;16028;42.642;23.310;2023-08-06T04:51:57;11.43;;;8.25;;
28910;SDS011;16028;42.642;23.310;2023-08-06T04:54:23;12.73;;;9.00;;
28910;SDS011;16028;42.642;23.310;2023-08-06T04:56:50;12.57;;;8.63;;
28910;SDS011;16028;42.642;23.310;2023-08-06T04:59:17;13.07;;;9.43;;
28910;SDS011;16028;42.642;23.310;2023-08-06T05:01:45;14.43;;;10.20;;
28910;SDS011;16028;42.642;23.310;2023-08-06T05:04:12;14.25;;;10.30;;
28910;SDS011;16028;42.642;23.310;2023-08-06T05:06:38;13.73;;;10.20;;
28910;SDS011;16028;42.642;23.310;2023-08-06T05:09:06;16.15;;;11.57;;
28910;SDS011;16028;42.642;23.310;2023-08-06T05:11:33;14.65;;;11.23;;
28910;SDS011;16028;42.642;23.310;2023-08-06T05:14:00;15.07;;;11.95;;
28910;SDS011;16028;42.642;23.310;2023-08-06T05:16:26;15.30;;;11.55;;
28910;SDS011;16028;42.642;23.310;2023-08-06T05:18:54;13.57;;;10.95;;
28910;SDS011;16028;42.642;23.310;2023-08-06T05:21:21;15.07;;;11.73;;
28910;SDS011;16028;42.642;23.310;2023-08-06T05:23:48;14.75;;;11.25;;
28910;SDS011;16028;42.642;23.310;2023-08-06T05:26:15;14.13;;;11.00;;
28910;SDS011;16028;42.642;23.310;2023-08-06T05:28:43;17.05;;;11.80;;
28910;SDS011;16028;42.642;23.310;2023-08-06T05:31:10;21.55;;;12.63;;
28910;SDS011;16028;42.642;23.310;2023-08-06T05:33:37;18.85;;;13.30;;
28910;SDS011;16028;42.642;23.310;2023-08-06T05:36:05;17.10;;;13.73;;
28910;SDS011;16028;42.642;23.310;2023-08-06T05:38:32;14.90;;;12.55;;
28910;SDS011;16028;42.642;23.310;2023-08-06T05:40:59;12.20;;;10.90;;
28910;SDS011;16028;42.642;23.310;2023-08-06T05:43:26;11.60;;;10.40;;
28910;SDS011;16028;42.642;23.310;2023-08-06T05:45:53;11.95;;;8.52;;
28910;SDS011;16028;42.642;23.310;2023-08-06T05:48:19;8.57;;;7.78;;
28910;SDS011;16028;42.642;23.310;2023-08-06T05:50:47;8.77;;;7.97;;
28910;SDS011;16028;42.642;23.310;2023-08-06T05:53:15;12.25;;;9.77;;
28910;SDS011;16028;42.642;23.310;2023-08-06T05:55:43;11.60;;;10.40;;
28910;SDS011;16028;42.642;23.310;2023-08-06T05:58:09;12.68;;;11.20;;
28910;SDS011;16028;42.642;23.310;2023-08-06T06:00:36;13.35;;;11.98;;
28910;SDS011;16028;42.642;23.310;2023-08-06T06:03:03;16.15;;;12.60;;
28910;SDS011;16028;42.642;23.310;2023-08-06T06:05:30;18.98;;;13.18;;
28910;SDS011;16028;42.642;23.310;2023-08-06T06:07:56;17.20;;;13.25;;
28910;SDS011;16028;42.642;23.310;2023-08-06T06:10:24;14.38;;;12.88;;
28910;SDS011;16028;42.642;23.310;2023-08-06T06:12:51;15.07;;;12.52;;
28910;SDS011;16028;42.642;23.310;2023-08-06T06:15:19;18.55;;;14.63;;
28910;SDS011;16028;42.642;23.310;2023-08-06T06:17:46;16.27;;;13.48;;
28910;SDS011;16028;42.642;23.310;2023-08-06T06:20:12;16.02;;;13.38;;
28910;SDS011;16028;42.642;23.310;2023-08-06T06:22:39;17.77;;;14.52;;
28910;SDS011;16028;42.642;23.310;2023-08-06T06:25:06;17.73;;;15.35;;
28910;SDS011;16028;42.642;23.310;2023-08-06T06:27:36;15.13;;;13.25;;
28910;SDS011;16028;42.642;23.310;2023-08-06T06:30:03;17.52;;;13.15;;
28910;SDS011;16028;42.642;23.310;2023-08-06T06:32:30;14.07;;;11.15;;
28910;SDS011;16028;42.642;23.310;2023-08-06T06:34:57;13.30;;;11.45;;
28910;SDS011;16028;42.642;23.310;2023-08-06T06:37:25;14.23;;;12.35;;
28910;SDS011;16028;42.642;23.310;2023-08-06T06:39:51;13.30;;;11.77;;
28910;SDS011;16028;42.642;23.310;2023-08-06T06:42:18;13.40;;;11.10;;
28910;SDS011;16028;42.642;23.310;2023-08-06T06:44:47;13.07;;;11.63;;
28910;SDS011;16028;42.642;23.310;2023-08-06T06:47:13;13.20;;;11.90;;
28910;SDS011;16028;42.642;23.310;2023-08-06T06:49:40;15.07;;;11.70;;
28910;SDS011;16028;42.642;23.310;2023-08-06T06:52:07;10.82;;;9.80;;
28910;SDS011;16028;42.642;23.310;2023-08-06T06:54:34;11.75;;;10.40;;
28910;SDS011;16028;42.642;23.310;2023-08-06T06:57:01;10.25;;;9.25;;
28910;SDS011;16028;42.642;23.310;2023-08-06T06:59:27;9.73;;;8.73;;
28910;SDS011;16028;42.642;23.310;2023-08-06T07:01:56;10.25;;;8.70;;
28910;SDS011;16028;42.642;23.310;2023-08-06T07:04:22;11.40;;;10.30;;
28910;SDS011;16028;42.642;23.310;2023-08-06T07:06:49;11.63;;;9.80;;
28910;SDS011;16028;42.642;23.310;2023-08-06T07:09:17;11.60;;;10.40;;
28910;SDS011;16028;42.642;23.310;2023-08-06T07:11:44;9.00;;;8.10;;
28910;SDS011;16028;42.642;23.310;2023-08-06T07:14:10;6.85;;;6.25;;
28910;SDS011;16028;42.642;23.310;2023-08-06T07:16:37;5.18;;;4.65;;
28910;SDS011;16028;42.642;23.310;2023-08-06T07:19:05;5.53;;;5.03;;
28910;SDS011;16028;42.642;23.310;2023-08-06T07:21:32;4.93;;;4.47;;
28910;SDS011;16028;42.642;23.310;2023-08-06T07:23:59;5.20;;;3.47;;
28910;SDS011;16028;42.642;23.310;2023-08-06T07:26:26;4.68;;;3.67;;
28910;SDS011;16028;42.642;23.310;2023-08-06T07:28:53;4.57;;;3.75;;
28910;SDS011;16028;42.642;23.310;2023-08-06T07:31:19;4.72;;;3.10;;
28910;SDS011;16028;42.642;23.310;2023-08-06T07:33:46;3.88;;;3.03;;
28910;SDS011;16028;42.642;23.310;2023-08-06T07:36:14;4.93;;;2.80;;
28910;SDS011;16028;42.642;23.310;2023-08-06T07:38:41;3.30;;;3.00;;
28910;SDS011;16028;42.642;23.310;2023-08-06T07:41:08;3.40;;;2.92;;
28910;SDS011;16028;42.642;23.310;2023-08-06T07:43:35;3.53;;;3.17;;
28910;SDS011;16028;42.642;23.310;2023-08-06T07:46:02;4.07;;;3.53;;
28910;SDS011;16028;42.642;23.310;2023-08-06T07:48:30;3.85;;;3.40;;
28910;SDS011;16028;42.642;23.310;2023-08-06T07:50:57;4.05;;;3.58;;
28910;SDS011;16028;42.642;23.310;2023-08-06T07:53:26;3.97;;;3.45;;
28910;SDS011;16028;42.642;23.310;2023-08-06T07:55:54;4.78;;;3.35;;
28910;SDS011;16028;42.642;23.310;2023-08-06T07:58:22;4.15;;;3.80;;
28910;SDS011;16028;42.642;23.310;2023-08-06T08:00:50;3.92;;;3.45;;
28910;SDS011;16028;42.642;23.310;2023-08-06T08:03:17;6.18;;;3.45;;
28910;SDS011;16028;42.642;23.310;2023-08-06T08:05:44;4.68;;;3.53;;
28910;SDS011;16028;42.642;23.310;2023-08-06T08:08:11;4.32;;;3.60;;
28910;SDS011;16028;42.642;23.310;2023-08-06T08:10:40;4.22;;;3.83;;
28910;SDS011;16028;42.642;23.310;2023-08-06T08:13:07;4.03;;;3.63;;
28910;SDS011;16028;42.642;23.310;2023-08-06T08:15:33;4.45;;;3.80;;
28910;SDS011;16028;42.642;23.310;2023-08-06T08:18:01;4.97;;;4.20;;
28910;SDS011;16028;42.642;23.310;2023-08-06T08:20:27;6.15;;;4.95;;
28910;SDS011;16028;42.642;23.310;2023-08-06T08:22:57;6.38;;;5.38;;
28910;SDS011;16028;42.642;23.310;2023-08-06T08:25:25;5.53;;;4.90;;
28910;SDS011;16028;42.642;23.310;2023-08-06T08:27:53;6.28;;;5.13;;
28910;SDS011;16028;42.642;23.310;2023-08-06T08:30:20;6.18;;;5.00;;
28910;SDS011;16028;42.642;23.310;2023-08-06T08:32:47;5.43;;;4.93;;
28910;SDS011;16028;42.642;23.310;2023-08-06T08:35:14;5.10;;;4.70;;
28910;SDS011;16028;42.642;23.310;2023-08-06T08:37:41;5.25;;;4.80;;
28910;SDS011;16028;42.642;23.310;2023-08-06T08:40:09;4.78;;;4.32;;
28910;SDS011;16028;42.642;23.310;2023-08-06T08:42:36;4.78;;;4.30;;
28910;SDS011;16028;42.642;23.310;2023-08-06T08:45:06;5.47;;;3.90;;
28910;SDS011;16028;42.642;23.310;2023-08-06T08:47:37;5.20;;;4.20;;
28910;SDS011;16028;42.642;23.310;2023-08-06T08:50:05;5.78;;;4.25;;
28910;SDS011;16028;42.642;23.310;2023-08-06T08:52:34;4.13;;;3.40;;
28910;SDS011;16028;42.642;23.310;2023-08-06T08:55:02;5.55;;;4.45;;
28910;SDS011;16028;42.642;23.310;2023-08-06T08:57:32;3.97;;;3.50;;
28910;SDS011;16028;42.642;23.310;2023-08-06T08:59:58;3.53;;;3.22;;
28910;SDS011;16028;42.642;23.310;2023-08-06T09:02:27;4.13;;;3.58;;
28910;SDS011;16028;42.642;23.310;2023-08-06T09:04:55;4.30;;;3.90;;
28910;SDS011;16028;42.642;23.310;2023-08-06T09:07:26;4.80;;;4.30;;
28910;SDS011;16028;42.642;23.310;2023-08-06T09:09:55;6.03;;;5.43;;
28910;SDS011;16028;42.642;23.310;2023-08-06T09:12:23;5.22;;;4.07;;
28910;SDS011;16028;42.642;23.310;2023-08-06T09:14:49;4.47;;;4.07;;
28910;SDS011;16028;42.642;23.310;2023-08-06T09:17:16;4.65;;;3.78;;
28910;SDS011;16028;42.642;23.310;2023-08-06T09:19:46;4.32;;;3.85;;
28910;SDS011;16028;42.642;23.310;2023-08-06T09:22:14;4.72;;;3.72;;
28910;SDS011;16028;42.642;23.310;2023-08-06T09:24:42;6.32;;;4.00;;
28910;SDS011;16028;42.642;23.310;2023-08-06T09:27:12;4.03;;;3.72;;
28910;SDS011;16028;42.642;23.310;2023-08-06T09:29:40;6.22;;;3.75;;
28910;SDS011;16028;42.642;23.310;2023-08-06T09:32:08;4.18;;;3.78;;
28910;SDS011;16028;42.642;23.310;2023-08-06T09:34:35;3.85;;;3.42;;
28910;SDS011;16028;42.642;23.310;2023-08-06T09:37:08;4.13;;;3.67;;
28910;SDS011;16028;42.642;23.310;2023-08-06T09:39:38;4.35;;;3.13;;
28910;SDS011;16028;42.642;23.310;2023-08-06T09:42:06;3.40;;;3.10;;
28910;SDS011;16028;42.642;23.310;2023-08-06T09:44:33;4.75;;;3.67;;
28910;SDS011;16028;42.642;23.310;2023-08-06T09:47:00;4.25;;;3.63;;
28910;SDS011;16028;42.642;23.310;2023-08-06T09:49:40;5.13;;;3.00;;
28910;SDS011;16028;42.642;23.310;2023-08-06T09:52:11;4.25;;;3.83;;
28910;SDS011;16028;42.642;23.310;2023-08-06T09:54:41;4.30;;;3.80;;
28910;SDS011;16028;42.642;23.310;2023-08-06T09:57:09;4.22;;;3.60;;
28910;SDS011;16028;42.642;23.310;2023-08-06T09:59:38;5.57;;;3.85;;
28910;SDS011;16028;42.642;23.310;2023-08-06T10:02:10;5.00;;;4.28;;
28910;SDS011;16028;42.642;23.310;2023-08-06T10:04:39;4.93;;;3.70;;
28910;SDS011;16028;42.642;23.310;2023-08-06T10:07:06;6.20;;;3.70;;
28910;SDS011;16028;42.642;23.310;2023-08-06T10:09:34;5.78;;;3.08;;
28910;SDS011;16028;42.642;23.310;2023-08-06T10:12:01;3.22;;;2.92;;
28910;SDS011;16028;42.642;23.310;2023-08-06T10:14:28;4.13;;;3.50;;
28910;SDS011;16028;42.642;23.310;2023-08-06T10:16:58;4.40;;;3.80;;
28910;SDS011;16028;42.642;23.310;2023-08-06T10:19:25;4.90;;;4.22;;
28910;SDS011;16028;42.642;23.310;2023-08-06T10:22:09;3.90;;;3.40;;
28910;SDS011;16028;42.642;23.310;2023-08-06T10:24:51;5.75;;;4.97;;
28910;SDS011;16028;42.642;23.310;2023-08-06T10:27:20;4.82;;;3.17;;
28910;SDS011;16028;42.642;23.310;2023-08-06T10:29:48;3.80;;;3.00;;
28910;SDS011;16028;42.642;23.310;2023-08-06T10:32:15;3.53;;;3.22;;
28910;SDS011;16028;42.642;23.310;2023-08-06T10:34:56;4.20;;;3.05;;
28910;SDS011;16028;42.642;23.310;2023-08-06T10:37:23;4.93;;;3.05;;
28910;SDS011;16028;42.642;23.310;2023-08-06T10:39:52;4.85;;;3.42;;
28910;SDS011;16028;42.642;23.310;2023-08-06T10:42:20;6.43;;;3.50;;
28910;SDS011;16028;42.642;23.310;2023-08-06T10:47:40;6.82;;;3.90;;
28910;SDS011;16028;42.642;23.310;2023-08-06T10:50:07;5.30;;;4.80;;
28910;SDS011;16028;42.642;23.310;2023-08-06T10:52:37;5.75;;;3.95;;
28910;SDS011;16028;42.642;23.310;2023-08-06T10:55:05;4.13;;;3.70;;
28910;SDS011;16028;42.642;23.310;2023-08-06T10:57:34;5.28;;;4.07;;
28910;SDS011;16028;42.642;23.310;2023-08-06T11:00:01;5.45;;;4.00;;
28910;SDS011;16028;42.642;23.310;2023-08-06T11:02:27;4.75;;;4.25;;
28910;SDS011;16028;42.642;23.310;2023-08-06T11:04:54;4.55;;;4.13;;
28910;SDS011;16028;42.642;23.310;2023-08-06T11:07:21;6.57;;;4.25;;
28910;SDS011;16028;42.642;23.310;2023-08-06T11:09:50;6.85;;;4.40;;
28910;SDS011;16028;42.642;23.310;2023-08-06T11:12:19;7.95;;;4.50;;
28910;SDS011;16028;42.642;23.310;2023-08-06T11:14:49;4.65;;;4.25;;
28910;SDS011;16028;42.642;23.310;2023-08-06T11:17:17;5.43;;;4.10;;
28910;SDS011;16028;42.642;23.310;2023-08-06T11:19:44;5.82;;;4.32;;
28910;SDS011;16028;42.642;23.310;2023-08-06T11:22:11;6.40;;;3.63;;
28910;SDS011;16028;42.642;23.310;2023-08-06T11:24:38;6.47;;;3.38;;
28910;SDS011;16028;42.642;23.310;2023-08-06T11:27:10;3.90;;;3.00;;
28910;SDS011;16028;42.642;23.310;2023-08-06T11:29:39;5.90;;;3.85;;
28910;SDS011;16028;42.642;23.310;2023-08-06T11:32:06;5.22;;;3.00;;
28910;SDS011;16028;42.642;23.310;2023-08-06T11:34:34;3.58;;;2.75;;
28910;SDS011;16028;42.642;23.310;2023-08-06T11:37:02;3.95;;;3.35;;
28910;SDS011;16028;42.642;23.310;2023-08-06T11:39:31;5.78;;;3.70;;
28910;SDS011;16028;42.642;23.310;2023-08-06T11:41:58;7.63;;;4.25;;
28910;SDS011;16028;42.642;23.310;2023-08-06T11:44:29;14.38;;;11.90;;
28910;SDS011;16028;42.642;23.310;2023-08-06T11:47:01;4.70;;;3.90;;
28910;SDS011;16028;42.642;23.310;2023-08-06T11:49:39;5.28;;;4.07;;
28910;SDS011;16028;42.642;23.310;2023-08-06T11:52:16;5.10;;;4.40;;
28910;SDS011;16028;42.642;23.310;2023-08-06T11:54:46;7.65;;;4.97;;
28910;SDS011;16028;42.642;23.310;2023-08-06T11:57:13;7.40;;;4.65;;
28910;SDS011;16028;42.642;23.310;2023-08-06T11:59:42;4.80;;;4.28;;
28910;SDS011;16028;42.642;23.310;2023-08-06T12:02:11;8.95;;;5.05;;
28910;SDS011;16028;42.642;23.310;2023-08-06T12:07:31;9.23;;;5.07;;
28910;SDS011;16028;42.642;23.310;2023-08-06T12:09:58;6.15;;;4.38;;
28910;SDS011;16028;42.642;23.310;2023-08-06T12:12:26;6.05;;;5.00;;
28910;SDS011;16028;42.642;23.310;2023-08-06T12:14:53;5.70;;;4.70;;
28910;SDS011;16028;42.642;23.310;2023-08-06T12:17:22;5.53;;;4.80;;
28910;SDS011;16028;42.642;23.310;2023-08-06T12:19:48;7.40;;;5.72;;
28910;SDS011;16028;42.642;23.310;2023-08-06T12:22:15;7.93;;;5.65;;
28910;SDS011;16028;42.642;23.310;2023-08-06T12:24:42;6.72;;;5.72;;
28910;SDS011;16028;42.642;23.310;2023-08-06T12:27:10;6.85;;;5.30;;
28910;SDS011;16028;42.642;23.310;2023-08-06T12:29:37;9.07;;;5.70;;
28910;SDS011;16028;42.642;23.310;2023-08-06T12:32:07;8.18;;;5.57;;
28910;SDS011;16028;42.642;23.310;2023-08-06T12:34:35;7.22;;;5.43;;
28910;SDS011;16028;42.642;23.310;2023-08-06T12:37:02;6.78;;;5.40;;
28910;SDS011;16028;42.642;23.310;2023-08-06T12:39:29;6.50;;;5.80;;
28910;SDS011;16028;42.642;23.310;2023-08-06T12:41:56;8.18;;;6.35;;
28910;SDS011;16028;42.642;23.310;2023-08-06T12:44:23;7.57;;;5.97;;
28910;SDS011;16028;42.642;23.310;2023-08-06T12:46:50;6.60;;;5.80;;
28910;SDS011;16028;42.642;23.310;2023-08-06T12:49:17;8.02;;;5.78;;
28910;SDS011;16028;42.642;23.310;2023-08-06T12:51:47;5.82;;;5.28;;
28910;SDS011;16028;42.642;23.310;2023-08-06T12:54:14;6.47;;;5.47;;
28910;SDS011;16028;42.642;23.310;2023-08-06T12:56:42;6.35;;;5.72;;
28910;SDS011;16028;42.642;23.310;2023-08-06T12:59:09;6.25;;;5.00;;
28910;SDS011;16028;42.642;23.310;2023-08-06T13:01:36;7.97;;;5.03;;
28910;SDS011;16028;42.642;23.310;2023-08-06T13:04:03;5.22;;;4.78;;
28910;SDS011;16028;42.642;23.310;2023-08-06T13:06:30;6.30;;;5.13;;
28910;SDS011;16028;42.642;23.310;2023-08-06T13:09:02;5.60;;;5.10;;
28910;SDS011;16028;42.642;23.310;2023-08-06T13:11:29;6.78;;;5.03;;
28910;SDS011;16028;42.642;23.310;2023-08-06T13:13:59;6.15;;;5.40;;
28910;SDS011;16028;42.642;23.310;2023-08-06T13:16:30;6.68;;;5.63;;
28910;SDS011;16028;42.642;23.310;2023-08-06T13:18:57;9.23;;;5.10;;
28910;SDS011;16028;42.642;23.310;2023-08-06T13:21:23;7.55;;;5.80;;
28910;SDS011;16028;42.642;23.310;2023-08-06T13:23:50;6.32;;;5.60;;
28910;SDS011;16028;42.642;23.310;2023-08-06T13:26:19;6.45;;;5.80;;
28910;SDS011;16028;42.642;23.310;2023-08-06T13:28:45;5.68;;;5.18;;
28910;SDS011;16028;42.642;23.310;2023-08-06T13:31:13;9.30;;;6.05;;
28910;SDS011;16028;42.642;23.310;2023-08-06T13:33:40;8.82;;;5.80;;
28910;SDS011;16028;42.642;23.310;2023-08-06T13:36:09;7.82;;;5.80;;
28910;SDS011;16028;42.642;23.310;2023-08-06T13:38:36;6.78;;;5.40;;
28910;SDS011;16028;42.642;23.310;2023-08-06T13:41:03;7.03;;;5.72;;
28910;SDS011;16028;42.642;23.310;2023-08-06T13:43:32;7.10;;;5.85;;
28910;SDS011;16028;42.642;23.310;2023-08-06T13:45:58;6.30;;;5.68;;
28910;SDS011;16028;42.642;23.310;2023-08-06T13:48:25;8.98;;;5.78;;
28910;SDS011;16028;42.642;23.310;2023-08-06T13:50:52;7.55;;;5.85;;
28910;SDS011;16028;42.642;23.310;2023-08-06T13:53:19;5.15;;;4.75;;
28910;SDS011;16028;42.642;23.310;2023-08-06T13:55:46;7.32;;;5.13;;
28910;SDS011;16028;42.642;23.310;2023-08-06T13:58:12;6.90;;;5.82;;
28910;SDS011;16028;42.642;23.310;2023-08-06T14:00:40;5.90;;;5.40;;
28910;SDS011;16028;42.642;23.310;2023-08-06T14:03:07;8.05;;;5.40;;
28910;SDS011;16028;42.642;23.310;2023-08-06T14:05:34;6.70;;;5.30;;
28910;SDS011;16028;42.642;23.310;2023-08-06T14:08:01;7.32;;;5.50;;
28910;SDS011;16028;42.642;23.310;2023-08-06T14:10:28;5.82;;;5.20;;
28910;SDS011;16028;42.642;23.310;2023-08-06T14:12:54;6.78;;;5.25;;
28910;SDS011;16028;42.642;23.310;2023-08-06T14:15:21;6.93;;;4.90;;
28910;SDS011;16028;42.642;23.310;2023-08-06T14:17:49;5.15;;;4.30;;
28910;SDS011;16028;42.642;23.310;2023-08-06T14:20:16;7.22;;;5.03;;
28910;SDS011;16028;42.642;23.310;2023-08-06T14:22:43;5.65;;;4.38;;
28910;SDS011;16028;42.642;23.310;2023-08-06T14:25:10;6.47;;;4.55;;
28910;SDS011;16028;42.642;23.310;2023-08-06T14:27:36;5.38;;;4.88;;
28910;SDS011;16028;42.642;23.310;2023-08-06T14:30:04;5.18;;;4.68;;
28910;SDS011;16028;42.642;23.310;2023-08-06T14:32:32;4.60;;;4.20;;
28910;SDS011;16028;42.642;23.310;2023-08-06T14:35:00;6.88;;;4.63;;
28910;SDS011;16028;42.642;23.310;2023-08-06T14:37:27;5.30;;;4.68;;